createdAt,value
2018-09-29T00:02:09.343Z,7.53
2018-09-29T00:04:37.996Z,7.70
2018-09-29T00:07:06.795Z,11.77
2018-09-29T00:09:35.440Z,8.77
2018-09-29T00:12:04.399Z,10.70
2018-09-29T00:14:33.036Z,7.80
2018-09-29T00:17:01.616Z,8.50
2018-09-29T00:19:30.265Z,7.07
2018-09-29T00:21:58.904Z,11.13
2018-09-29T00:24:27.565Z,7.17
2018-09-29T00:26:56.219Z,7.00
2018-09-29T00:29:24.880Z,5.50
2018-09-29T00:31:53.526Z,6.23
2018-09-29T00:34:22.140Z,9.40
2018-09-29T00:36:50.813Z,7.90
2018-09-29T00:39:19.451Z,5.60
2018-09-29T00:41:48.107Z,8.50
2018-09-29T00:44:17.002Z,10.00
2018-09-29T00:46:45.609Z,5.20
2018-09-29T00:49:14.270Z,6.20
2018-09-29T00:51:42.991Z,4.90
2018-09-29T00:54:11.574Z,7.20
2018-09-29T00:56:40.217Z,7.97
2018-09-29T00:59:08.888Z,6.47
2018-09-29T01:01:37.518Z,6.47
2018-09-29T01:04:06.268Z,10.83
2018-09-29T01:06:34.907Z,10.27
2018-09-29T01:09:04.384Z,6.47
2018-09-29T01:11:33.048Z,6.77
2018-09-29T01:14:01.718Z,6.97
2018-09-29T01:16:30.416Z,9.70
2018-09-29T01:18:59.056Z,6.90
2018-09-29T01:21:27.699Z,8.00
2018-09-29T01:23:56.320Z,4.13
2018-09-29T01:26:25.078Z,7.13
2018-09-29T01:28:53.707Z,4.60
2018-09-29T01:31:22.354Z,6.13
2018-09-29T01:33:51.247Z,6.93
2018-09-29T01:36:19.876Z,6.43
2018-09-29T01:38:48.508Z,8.03
2018-09-29T01:41:17.171Z,8.23
2018-09-29T01:43:46.032Z,5.63
2018-09-29T01:46:14.616Z,7.97
2018-09-29T01:48:43.248Z,8.97
2018-09-29T01:51:11.924Z,4.47
2018-09-29T01:53:40.611Z,5.73
2018-09-29T01:56:09.272Z,6.93
2018-09-29T01:58:37.960Z,6.13
2018-09-29T02:01:06.743Z,6.37
2018-09-29T02:03:35.372Z,6.63
2018-09-29T02:06:04.038Z,9.17
2018-09-29T02:08:32.697Z,10.33
2018-09-29T02:11:01.323Z,6.40
2018-09-29T02:13:30.219Z,12.10
2018-09-29T02:15:58.842Z,7.50
2018-09-29T02:18:27.469Z,11.40
2018-09-29T02:20:56.159Z,10.30
2018-09-29T02:23:24.790Z,14.50
2018-09-29T02:25:53.476Z,13.00
2018-09-29T02:28:22.188Z,17.73
2018-09-29T02:30:51.085Z,34.53
2018-09-29T02:33:19.763Z,24.23
2018-09-29T02:35:48.373Z,27.73
2018-09-29T02:38:17.012Z,26.27
2018-09-29T02:40:45.617Z,24.37
2018-09-29T02:43:14.324Z,22.03
2018-09-29T02:45:42.951Z,16.70
2018-09-29T02:48:11.615Z,14.13
2018-09-29T02:50:40.219Z,9.93
2018-09-29T02:53:08.855Z,10.10
2018-09-29T02:55:37.503Z,9.80
2018-09-29T02:58:06.161Z,6.40
2018-09-29T03:00:34.794Z,5.77
2018-09-29T03:03:03.483Z,8.07
2018-09-29T03:05:32.165Z,12.00
2018-09-29T03:08:01.113Z,5.53
2018-09-29T03:10:29.729Z,7.07
2018-09-29T03:12:58.344Z,6.60
2018-09-29T03:15:26.991Z,6.07
2018-09-29T03:17:55.667Z,5.20
2018-09-29T03:20:24.336Z,5.20
2018-09-29T03:22:53.004Z,10.50
2018-09-29T03:25:21.645Z,6.30
2018-09-29T03:27:50.334Z,5.77
2018-09-29T03:30:18.971Z,6.43
2018-09-29T03:32:47.583Z,5.60
2018-09-29T03:35:16.200Z,8.07
2018-09-29T03:37:45.247Z,5.83
2018-09-29T03:40:13.843Z,5.40
2018-09-29T03:42:42.433Z,5.60
2018-09-29T03:45:11.086Z,6.13
2018-09-29T03:47:39.757Z,7.50
2018-09-29T03:50:08.465Z,4.90
2018-09-29T03:52:37.156Z,11.17
2018-09-29T03:55:05.901Z,3.97
2018-09-29T03:57:34.568Z,10.10
2018-09-29T04:00:03.268Z,8.70
2018-09-29T04:02:31.988Z,4.80
2018-09-29T04:05:00.567Z,6.33
2018-09-29T04:07:29.200Z,4.40
2018-09-29T04:09:57.832Z,4.53
2018-09-29T04:12:26.868Z,7.93
2018-09-29T04:14:55.479Z,8.23
2018-09-29T04:17:24.072Z,4.43
2018-09-29T04:19:52.751Z,5.13
2018-09-29T04:22:21.374Z,7.03
2018-09-29T04:24:50.059Z,5.47
2018-09-29T04:27:18.696Z,8.00
2018-09-29T04:29:47.391Z,7.43
2018-09-29T04:32:16.049Z,5.07
2018-09-29T04:34:44.697Z,7.37
2018-09-29T04:37:13.342Z,6.03
2018-09-29T04:39:42.050Z,6.50
2018-09-29T04:42:10.676Z,7.70
2018-09-29T04:44:39.322Z,10.47
2018-09-29T04:47:08.014Z,8.50
2018-09-29T04:49:36.683Z,6.30
2018-09-29T04:52:05.311Z,4.43
2018-09-29T04:54:34.000Z,4.80
2018-09-29T04:57:02.640Z,7.83
2018-09-29T04:59:31.247Z,5.63
2018-09-29T05:01:59.907Z,7.03
2018-09-29T05:04:28.510Z,5.03
2018-09-29T05:06:57.138Z,6.07
2018-09-29T05:09:25.773Z,4.70
2018-09-29T05:11:54.415Z,6.27
2018-09-29T05:14:23.123Z,5.20
2018-09-29T05:16:51.739Z,8.10
2018-09-29T05:19:20.341Z,9.40
2018-09-29T05:21:48.939Z,8.60
2018-09-29T05:24:17.613Z,7.47
2018-09-29T05:26:46.263Z,5.30
2018-09-29T05:29:14.892Z,10.10
2018-09-29T05:31:43.592Z,6.60
2018-09-29T05:34:12.280Z,4.30
2018-09-29T05:36:40.910Z,5.33
2018-09-29T05:39:10.024Z,4.57
2018-09-29T05:41:38.692Z,8.03
2018-09-29T05:44:07.344Z,10.53
2018-09-29T05:46:35.980Z,6.63
2018-09-29T05:49:04.699Z,4.80
2018-09-29T05:51:33.519Z,7.97
2018-09-29T05:54:02.189Z,5.87
2018-09-29T05:56:30.850Z,8.50
2018-09-29T05:58:59.495Z,7.43
2018-09-29T06:01:28.100Z,6.70
2018-09-29T06:03:56.763Z,5.90
2018-09-29T06:06:25.364Z,9.50
2018-09-29T06:08:54.009Z,5.40
2018-09-29T06:11:22.687Z,6.40
2018-09-29T06:13:51.323Z,10.27
2018-09-29T06:16:20.044Z,10.63
2018-09-29T06:18:48.651Z,7.57
2018-09-29T06:21:17.275Z,6.83
2018-09-29T06:23:45.979Z,5.93
2018-09-29T06:26:14.638Z,6.80
2018-09-29T06:28:43.303Z,7.53
2018-09-29T06:31:12.088Z,11.57
2018-09-29T06:33:41.136Z,7.80
2018-09-29T06:36:09.760Z,6.60
2018-09-29T06:38:38.362Z,9.63
2018-09-29T06:41:07.299Z,8.90
2018-09-29T06:43:35.940Z,5.23
2018-09-29T06:46:04.656Z,9.57
2018-09-29T06:48:33.320Z,6.07
2018-09-29T06:51:01.973Z,4.57
2018-09-29T06:53:30.595Z,9.20
2018-09-29T06:55:59.256Z,5.50
2018-09-29T06:58:27.860Z,5.97
2018-09-29T07:00:56.507Z,7.57
2018-09-29T07:03:25.108Z,6.90
2018-09-29T07:05:53.807Z,6.37
2018-09-29T07:08:22.427Z,9.23
2018-09-29T07:10:51.103Z,10.00
2018-09-29T07:13:19.748Z,6.90
2018-09-29T07:15:48.383Z,8.83
2018-09-29T07:18:17.051Z,11.70
2018-09-29T07:20:45.695Z,15.60
2018-09-29T07:23:14.328Z,13.33
2018-09-29T07:25:42.995Z,8.10
2018-09-29T07:28:11.658Z,10.77
2018-09-29T07:30:40.337Z,8.00
2018-09-29T07:33:09.143Z,9.90
2018-09-29T07:35:37.816Z,9.60
2018-09-29T07:38:06.657Z,16.40
2018-09-29T07:40:35.244Z,11.77
2018-09-29T07:43:03.925Z,12.30
2018-09-29T07:45:32.631Z,10.43
2018-09-29T07:48:01.175Z,7.93
2018-09-29T07:50:29.807Z,9.37
2018-09-29T07:52:58.396Z,10.93
2018-09-29T07:55:27.101Z,12.47
2018-09-29T07:57:55.772Z,8.53
2018-09-29T08:00:24.437Z,10.53
2018-09-29T08:02:53.091Z,8.20
2018-09-29T08:05:21.737Z,9.07
2018-09-29T08:07:50.389Z,8.93
2018-09-29T08:10:19.016Z,10.10
2018-09-29T08:12:47.667Z,5.40
2018-09-29T08:15:16.328Z,5.93
2018-09-29T08:17:45.076Z,4.57
2018-09-29T08:20:13.689Z,6.90
2018-09-29T08:22:42.406Z,9.87
2018-09-29T08:25:11.060Z,10.30
2018-09-29T08:27:39.697Z,5.00
2018-09-29T08:30:08.422Z,8.27
2018-09-29T08:32:37.098Z,5.20
2018-09-29T08:35:05.724Z,6.80
2018-09-29T08:37:34.366Z,10.30
2018-09-29T08:40:03.043Z,7.00
2018-09-29T08:42:31.659Z,4.37
2018-09-29T08:45:00.363Z,9.83
2018-09-29T08:47:28.940Z,10.43
2018-09-29T08:49:57.613Z,11.97
2018-09-29T08:52:26.265Z,6.57
2018-09-29T08:54:54.893Z,7.50
2018-09-29T08:57:23.511Z,7.40
2018-09-29T08:59:52.095Z,6.53
2018-09-29T09:02:20.740Z,6.87
2018-09-29T09:04:49.355Z,10.80
2018-09-29T09:07:18.014Z,9.40
2018-09-29T09:09:46.649Z,9.23
2018-09-29T09:12:15.340Z,8.00
2018-09-29T09:14:43.923Z,6.03
2018-09-29T09:17:12.543Z,6.53
2018-09-29T09:19:41.196Z,4.50
2018-09-29T09:22:09.828Z,7.40
2018-09-29T09:24:38.479Z,4.10
2018-09-29T09:27:07.177Z,4.70
2018-09-29T09:29:35.799Z,6.20
2018-09-29T09:32:04.457Z,2.70
2018-09-29T09:34:33.125Z,8.70
2018-09-29T09:37:01.747Z,7.10
2018-09-29T09:39:30.398Z,5.00
2018-09-29T09:41:59.260Z,3.80
2018-09-29T09:44:27.851Z,6.87
2018-09-29T09:46:56.527Z,4.47
2018-09-29T09:49:25.221Z,6.37
2018-09-29T09:51:53.840Z,3.73
2018-09-29T09:54:22.474Z,7.90
2018-09-29T09:56:51.204Z,8.53
2018-09-29T09:59:19.817Z,3.77
2018-09-29T10:01:53.912Z,6.10
2018-09-29T10:04:22.499Z,2.80
2018-09-29T10:06:51.161Z,3.53
2018-09-29T10:09:19.841Z,13.70
2018-09-29T10:11:48.464Z,4.80
2018-09-29T10:14:17.128Z,6.20
2018-09-29T10:16:45.729Z,5.90
2018-09-29T10:19:14.323Z,7.10
2018-09-29T10:21:43.213Z,2.40
2018-09-29T10:24:11.863Z,4.93
2018-09-29T10:26:40.479Z,2.83
2018-09-29T10:29:09.110Z,4.60
2018-09-29T10:31:37.723Z,2.70
2018-09-29T10:34:06.498Z,8.87
2018-09-29T10:36:35.116Z,8.93
2018-09-29T10:39:04.968Z,5.50
2018-09-29T10:41:33.600Z,2.60
2018-09-29T10:44:02.224Z,11.90
2018-09-29T10:46:31.769Z,4.20
2018-09-29T10:49:00.679Z,4.57
2018-09-29T10:51:29.291Z,3.03
2018-09-29T10:53:58.375Z,4.63
2018-09-29T10:56:27.025Z,3.80
2018-09-29T10:58:55.737Z,5.83
2018-09-29T11:01:24.369Z,4.40
2018-09-29T11:03:52.976Z,3.37
2018-09-29T11:06:21.661Z,6.20
2018-09-29T11:08:50.319Z,3.43
2018-09-29T11:11:18.966Z,6.20
2018-09-29T11:13:47.626Z,5.83
2018-09-29T11:16:16.280Z,4.27
2018-09-29T11:18:44.911Z,7.40
2018-09-29T11:21:13.528Z,7.33
2018-09-29T11:23:42.167Z,2.77
2018-09-29T11:26:10.803Z,7.43
2018-09-29T11:28:39.403Z,9.47
2018-09-29T11:31:08.031Z,7.33
2018-09-29T11:33:36.630Z,8.20
2018-09-29T11:36:05.279Z,4.67
2018-09-29T11:38:33.927Z,6.70
2018-09-29T11:41:02.608Z,5.60
2018-09-29T11:43:31.256Z,8.60
2018-09-29T11:45:59.956Z,4.83
2018-09-29T11:48:28.635Z,5.87
2018-09-29T11:50:57.295Z,3.80
2018-09-29T11:53:25.870Z,7.03
2018-09-29T11:55:54.776Z,5.50
2018-09-29T11:58:23.400Z,6.00
2018-09-29T12:00:52.022Z,5.50
2018-09-29T12:03:20.655Z,4.73
2018-09-29T12:05:49.284Z,2.83
2018-09-29T12:08:17.908Z,3.33
2018-09-29T12:10:46.530Z,3.07
2018-09-29T12:13:15.158Z,9.53
2018-09-29T12:15:43.788Z,3.80
2018-09-29T12:18:12.446Z,3.07
2018-09-29T12:20:41.060Z,3.67
2018-09-29T12:23:09.704Z,2.90
2018-09-29T12:25:38.338Z,8.80
2018-09-29T12:28:06.992Z,7.50
2018-09-29T12:30:35.646Z,5.50
2018-09-29T12:33:04.262Z,3.23
2018-09-29T12:35:32.947Z,5.00
2018-09-29T12:38:01.600Z,8.43
2018-09-29T12:40:30.263Z,4.07
2018-09-29T12:42:58.919Z,5.13
2018-09-29T12:45:27.567Z,6.53
2018-09-29T12:47:56.220Z,6.73
2018-09-29T12:50:24.856Z,6.30
2018-09-29T12:52:53.495Z,2.60
2018-09-29T12:55:22.129Z,2.87
2018-09-29T12:57:50.787Z,5.23
2018-09-29T13:00:19.442Z,5.30
2018-09-29T13:02:48.084Z,5.30
2018-09-29T13:05:16.928Z,4.40
2018-09-29T13:07:45.468Z,8.70
2018-09-29T13:10:14.196Z,5.17
2018-09-29T13:12:42.907Z,3.93
2018-09-29T13:15:11.524Z,4.83
2018-09-29T13:17:40.261Z,2.70
2018-09-29T13:20:08.975Z,6.20
2018-09-29T13:22:37.572Z,2.17
2018-09-29T13:25:06.296Z,2.47
2018-09-29T13:27:34.999Z,6.27
2018-09-29T13:30:03.681Z,4.43
2018-09-29T13:32:32.323Z,6.73
2018-09-29T13:35:01.039Z,5.57
2018-09-29T13:37:29.642Z,4.83
2018-09-29T13:39:58.274Z,7.27
2018-09-29T13:42:26.952Z,6.47
2018-09-29T13:44:55.743Z,2.40
2018-09-29T13:47:24.348Z,5.57
2018-09-29T13:49:52.991Z,5.97
2018-09-29T13:52:21.593Z,7.57
2018-09-29T13:54:50.267Z,3.90
2018-09-29T13:57:18.915Z,2.80
2018-09-29T13:59:47.583Z,3.03
2018-09-29T14:02:16.279Z,4.37
2018-09-29T14:04:44.967Z,5.03
2018-09-29T14:07:13.615Z,5.10
2018-09-29T14:09:42.256Z,4.87
2018-09-29T14:12:10.907Z,2.87
2018-09-29T14:14:39.539Z,3.10
2018-09-29T14:17:08.207Z,4.10
2018-09-29T14:19:36.891Z,6.50
2018-09-29T14:22:05.579Z,5.43
2018-09-29T14:24:34.239Z,7.20
2018-09-29T14:27:02.854Z,5.03
2018-09-29T14:29:31.875Z,4.70
2018-09-29T14:32:00.746Z,3.40
2018-09-29T14:34:29.341Z,3.23
2018-09-29T14:36:58.096Z,4.83
2018-09-29T14:39:26.721Z,4.60
2018-09-29T14:41:55.475Z,1.67
2018-09-29T14:44:24.127Z,3.13
2018-09-29T14:46:52.719Z,4.37
2018-09-29T14:49:21.363Z,5.53
2018-09-29T14:51:50.021Z,3.17
2018-09-29T14:54:18.700Z,4.13
2018-09-29T14:56:47.343Z,3.57
2018-09-29T14:59:16.054Z,5.93
2018-09-29T15:01:44.699Z,4.00
2018-09-29T15:04:13.409Z,9.20
2018-09-29T15:06:41.968Z,2.33
2018-09-29T15:09:11.829Z,4.77
2018-09-29T15:11:40.479Z,6.67
2018-09-29T15:14:09.739Z,4.10
2018-09-29T15:16:38.438Z,4.67
2018-09-29T15:19:07.196Z,2.80
2018-09-29T15:21:35.862Z,7.70
2018-09-29T15:24:04.563Z,3.50
2018-09-29T15:26:33.194Z,4.13
2018-09-29T15:29:01.835Z,8.30
2018-09-29T15:31:30.452Z,4.80
2018-09-29T15:33:59.080Z,5.37
2018-09-29T15:36:27.748Z,5.50
2018-09-29T15:38:56.756Z,2.37
2018-09-29T15:41:25.408Z,5.00
2018-09-29T15:43:54.048Z,2.30
2018-09-29T15:46:22.663Z,5.50
2018-09-29T15:48:51.354Z,4.87
2018-09-29T15:51:19.952Z,7.37
2018-09-29T15:53:48.603Z,3.53
2018-09-29T15:56:17.263Z,1.90
2018-09-29T15:58:45.888Z,6.50
2018-09-29T16:01:14.520Z,4.93
2018-09-29T16:03:43.163Z,6.10
2018-09-29T16:06:11.815Z,5.80
2018-09-29T16:08:40.508Z,6.27
2018-09-29T16:11:09.170Z,5.43
2018-09-29T16:13:37.812Z,7.93
2018-09-29T16:16:06.497Z,6.33
2018-09-29T16:18:35.197Z,5.13
2018-09-29T16:21:03.875Z,5.70
2018-09-29T16:23:32.504Z,5.40
2018-09-29T16:26:01.296Z,5.03
2018-09-29T16:28:30.036Z,4.50
2018-09-29T16:30:58.684Z,4.93
2018-09-29T16:33:27.335Z,9.50
2018-09-29T16:35:55.980Z,4.13
2018-09-29T16:38:24.725Z,4.40
2018-09-29T16:40:53.374Z,3.30
2018-09-29T16:43:22.074Z,2.67
2018-09-29T16:45:50.707Z,6.00
2018-09-29T16:48:19.330Z,4.37
2018-09-29T16:50:48.007Z,6.70
2018-09-29T16:53:16.652Z,8.33
2018-09-29T16:55:45.309Z,3.60
2018-09-29T16:58:13.970Z,4.70
2018-09-29T17:00:42.652Z,3.63
2018-09-29T17:03:11.319Z,4.50
2018-09-29T17:05:39.987Z,6.37
2018-09-29T17:08:08.656Z,3.40
2018-09-29T17:10:37.293Z,3.77
2018-09-29T17:13:05.955Z,2.70
2018-09-29T17:15:34.624Z,6.00
2018-09-29T17:18:03.213Z,5.70
2018-09-29T17:20:31.895Z,7.27
2018-09-29T17:23:00.511Z,6.00
2018-09-29T17:25:29.177Z,7.97
2018-09-29T17:27:57.793Z,5.33
2018-09-29T17:30:26.377Z,6.07
2018-09-29T17:32:55.104Z,7.00
2018-09-29T17:35:23.743Z,9.93
2018-09-29T17:37:52.425Z,7.27
2018-09-29T17:40:21.108Z,8.20
2018-09-29T17:42:49.763Z,9.00
2018-09-29T17:45:18.418Z,7.13
2018-09-29T17:47:47.059Z,7.80
2018-09-29T17:50:15.677Z,8.83
2018-09-29T17:52:44.303Z,8.07
2018-09-29T17:55:12.928Z,8.40
2018-09-29T17:57:41.543Z,6.60
2018-09-29T18:00:10.212Z,10.40
2018-09-29T18:02:39.145Z,8.73
2018-09-29T18:05:07.868Z,12.33
2018-09-29T18:07:36.486Z,14.90
2018-09-29T18:10:05.749Z,16.07
2018-09-29T18:12:34.396Z,14.80
2018-09-29T18:15:03.403Z,15.43
2018-09-29T18:17:32.053Z,15.57
2018-09-29T18:20:00.664Z,22.47
2018-09-29T18:22:29.311Z,25.93
2018-09-29T18:24:57.959Z,26.80
2018-09-29T18:27:26.592Z,20.73
2018-09-29T18:29:55.315Z,23.70
2018-09-29T18:32:23.915Z,18.20
2018-09-29T18:34:52.550Z,25.00
2018-09-29T18:37:21.245Z,24.00
2018-09-29T18:39:49.882Z,27.13
2018-09-29T18:42:18.503Z,22.10
2018-09-29T18:44:47.192Z,24.67
2018-09-29T18:47:15.854Z,25.77
2018-09-29T18:49:44.528Z,19.87
2018-09-29T18:52:13.151Z,27.47
2018-09-29T18:54:41.858Z,20.80
2018-09-29T18:57:10.468Z,21.53
2018-09-29T18:59:39.112Z,20.87
2018-09-29T19:02:07.875Z,18.90
2018-09-29T19:04:36.552Z,22.37
2018-09-29T19:07:05.252Z,25.63
2018-09-29T19:09:33.920Z,24.97
2018-09-29T19:12:02.636Z,24.80
2018-09-29T19:14:31.273Z,20.57
2018-09-29T19:16:59.962Z,20.20
2018-09-29T19:19:28.652Z,23.27
2018-09-29T19:21:57.311Z,22.10
2018-09-29T19:24:25.940Z,25.13
2018-09-29T19:26:54.580Z,22.27
2018-09-29T19:29:23.238Z,21.03
2018-09-29T19:31:51.935Z,26.67
2018-09-29T19:34:20.565Z,21.70
2018-09-29T19:36:49.386Z,21.70
2018-09-29T19:39:18.033Z,17.73
2018-09-29T19:41:46.724Z,17.07
2018-09-29T19:44:15.380Z,19.90
2018-09-29T19:46:44.044Z,20.23
2018-09-29T19:49:12.761Z,15.90
2018-09-29T19:51:41.411Z,24.67
2018-09-29T19:54:10.136Z,17.57
2018-09-29T19:56:38.883Z,18.67
2018-09-29T19:59:07.520Z,24.60
2018-09-29T20:01:36.192Z,20.60
2018-09-29T20:04:04.939Z,24.10
2018-09-29T20:06:33.552Z,17.47
2018-09-29T20:09:02.233Z,18.43
2018-09-29T20:11:30.856Z,18.63
2018-09-29T20:13:59.511Z,19.43
2018-09-29T20:16:28.164Z,20.30
2018-09-29T20:18:57.155Z,18.37
2018-09-29T20:21:25.812Z,17.00
2018-09-29T20:23:54.441Z,16.53
2018-09-29T20:26:23.103Z,16.10
2018-09-29T20:28:51.716Z,14.00
2018-09-29T20:31:20.339Z,19.30
2018-09-29T20:33:49.037Z,18.43
2018-09-29T20:36:17.673Z,19.90
2018-09-29T20:38:46.440Z,13.20
2018-09-29T20:41:15.077Z,16.00
2018-09-29T20:43:43.809Z,13.00
2018-09-29T20:46:12.458Z,10.03
2018-09-29T20:48:41.117Z,13.90
2018-09-29T20:51:09.839Z,8.83
2018-09-29T20:53:38.492Z,12.13
2018-09-29T20:56:07.195Z,10.20
2018-09-29T20:58:35.828Z,7.97
2018-09-29T21:01:04.475Z,9.83
2018-09-29T21:03:33.128Z,8.97
2018-09-29T21:06:02.052Z,9.07
2018-09-29T21:08:30.721Z,12.83
2018-09-29T21:10:59.343Z,10.97
2018-09-29T21:13:28.100Z,7.47
2018-09-29T21:15:56.728Z,10.90
2018-09-29T21:18:25.303Z,11.07
2018-09-29T21:20:54.063Z,8.27
2018-09-29T21:23:22.708Z,10.10
2018-09-29T21:25:51.311Z,9.60
2018-09-29T21:28:20.049Z,15.13
2018-09-29T21:30:48.776Z,15.10
2018-09-29T21:33:17.454Z,9.20
2018-09-29T21:35:46.127Z,15.77
2018-09-29T21:38:14.810Z,8.87
2018-09-29T21:40:43.536Z,14.80
2018-09-29T21:43:12.547Z,11.90
2018-09-29T21:45:41.204Z,16.23
2018-09-29T21:48:09.837Z,13.03
2018-09-29T21:50:38.491Z,12.00
2018-09-29T21:53:07.134Z,12.20
2018-09-29T21:55:35.825Z,14.13
2018-09-29T21:58:04.471Z,12.70
2018-09-29T22:00:38.497Z,15.33
2018-09-29T22:03:07.259Z,13.43
2018-09-29T22:05:35.919Z,17.13
2018-09-29T22:08:04.549Z,12.30
2018-09-29T22:10:33.553Z,8.73
2018-09-29T22:13:02.244Z,12.77
2018-09-29T22:15:30.856Z,21.20
2018-09-29T22:17:59.561Z,16.90
2018-09-29T22:20:28.187Z,13.27
2018-09-29T22:22:56.908Z,11.30
2018-09-29T22:25:25.585Z,12.50
2018-09-29T22:27:54.557Z,9.80
2018-09-29T22:30:23.172Z,9.73
2018-09-29T22:32:51.812Z,12.43
2018-09-29T22:35:20.470Z,14.80
2018-09-29T22:37:49.132Z,14.63
2018-09-29T22:40:17.849Z,15.37
2018-09-29T22:42:46.500Z,11.30
2018-09-29T22:45:15.199Z,14.57
2018-09-29T22:47:43.836Z,11.63
2018-09-29T22:50:12.715Z,11.23
2018-09-29T22:52:41.349Z,11.53
2018-09-29T22:55:10.067Z,10.77
2018-09-29T22:57:38.783Z,12.03
2018-09-29T23:00:07.707Z,8.40
2018-09-29T23:02:36.399Z,6.97
2018-09-29T23:05:05.127Z,11.47
2018-09-29T23:07:33.800Z,7.73
2018-09-29T23:10:02.467Z,9.43
2018-09-29T23:12:31.160Z,11.37
2018-09-29T23:14:59.827Z,8.20
2018-09-29T23:17:28.470Z,8.23
2018-09-29T23:19:57.170Z,8.33
2018-09-29T23:22:25.835Z,10.90
2018-09-29T23:24:54.456Z,9.23
2018-09-29T23:27:23.133Z,8.70
2018-09-29T23:29:51.783Z,8.60
2018-09-29T23:32:20.399Z,11.37
2018-09-29T23:34:49.083Z,10.67
2018-09-29T23:37:17.707Z,8.57
2018-09-29T23:39:46.404Z,12.93
2018-09-29T23:42:15.092Z,9.13
2018-09-29T23:44:43.723Z,10.13
2018-09-29T23:47:12.658Z,11.47
2018-09-29T23:49:41.368Z,6.90
2018-09-29T23:52:10.051Z,7.83
2018-09-29T23:54:38.792Z,9.13
2018-09-29T23:57:07.507Z,10.70
2018-09-29T23:59:36.184Z,9.37
